LEBB/BIO METAR and TAF weather

Enter ICAO airport designator
Station Type Date Time Source
LEBB METAR 2022/01/26 07:00 UTC NOAA

LEBB 260700Z 08003KT 030V120 CAVOK 01/00 Q1032 NOSIG


Station Type Date Time Source
LEBB Decoded METAR 2022/01/26 07:00 UTC NOAA

Bilbao / Sondica, Spain (LEBB) 43-18N 002-56W 37M
Jan 26, 2022 - 02:00 AM EST / 2022.01.26 0700 UTC
Wind: from the E (080 degrees) at 3 MPH (3 KT) (direction variable):0
Visibility: greater than 7 mile(s):0
Temperature: 33 F (1 C)
Dew Point: 32 F (0 C)
Relative Humidity: 93%
Pressure (altimeter): 30.47 in. Hg (1032 hPa)
ob: LEBB 260700Z 08003KT 030V120 CAVOK 01/00 Q1032 NOSIG
cycle: 7

Station Type Date Time Source
LEBB TAF 2022/01/26 06:27 UTC NOAA

TAF LEBB 260500Z 2606/2706 10003KT CAVOK TX15/2614Z TN00/2606Z PROB40
TEMPO 2700/2706 3000 BR BCFG PROB30
TEMPO 2702/2706 0350 FG VV001

Example: see airport list